sensor_id;sensor_type;location;lat;lon;timestamp;P1;durP1;ratioP1;P2;durP2;ratioP2
16179;SDS011;8196;49.428;10.906;2022-07-01T00:02:04;6.75;;;4.18;;
16179;SDS011;8196;49.428;10.906;2022-07-01T00:04:31;6.30;;;4.32;;
16179;SDS011;8196;49.428;10.906;2022-07-01T00:06:58;4.90;;;4.27;;
16179;SDS011;8196;49.428;10.906;2022-07-01T00:09:25;5.75;;;4.25;;
16179;SDS011;8196;49.428;10.906;2022-07-01T00:11:53;6.22;;;4.32;;
16179;SDS011;8196;49.428;10.906;2022-07-01T00:14:20;5.30;;;4.20;;
16179;SDS011;8196;49.428;10.906;2022-07-01T00:16:49;5.72;;;4.10;;
16179;SDS011;8196;49.428;10.906;2022-07-01T00:19:17;6.35;;;4.07;;
16179;SDS011;8196;49.428;10.906;2022-07-01T00:21:44;5.22;;;4.30;;
16179;SDS011;8196;49.428;10.906;2022-07-01T00:24:10;7.60;;;3.97;;
16179;SDS011;8196;49.428;10.906;2022-07-01T00:26:37;4.78;;;4.10;;
16179;SDS011;8196;49.428;10.906;2022-07-01T00:29:04;4.70;;;3.90;;
16179;SDS011;8196;49.428;10.906;2022-07-01T00:31:31;4.07;;;3.67;;
16179;SDS011;8196;49.428;10.906;2022-07-01T00:33:58;4.25;;;3.85;;
16179;SDS011;8196;49.428;10.906;2022-07-01T00:36:24;4.33;;;3.93;;
16179;SDS011;8196;49.428;10.906;2022-07-01T00:38:56;3.80;;;3.50;;
16179;SDS011;8196;49.428;10.906;2022-07-01T00:41:23;4.35;;;3.40;;
16179;SDS011;8196;49.428;10.906;2022-07-01T00:43:50;5.78;;;3.55;;
16179;SDS011;8196;49.428;10.906;2022-07-01T00:46:20;5.03;;;3.38;;
16179;SDS011;8196;49.428;10.906;2022-07-01T00:48:48;4.00;;;3.53;;
16179;SDS011;8196;49.428;10.906;2022-07-01T00:51:17;4.03;;;3.23;;
16179;SDS011;8196;49.428;10.906;2022-07-01T00:53:46;5.90;;;3.20;;
16179;SDS011;8196;49.428;10.906;2022-07-01T00:56:13;5.78;;;2.97;;
16179;SDS011;8196;49.428;10.906;2022-07-01T00:58:41;3.42;;;2.97;;
16179;SDS011;8196;49.428;10.906;2022-07-01T01:01:08;2.80;;;2.50;;
16179;SDS011;8196;49.428;10.906;2022-07-01T01:03:35;3.30;;;3.00;;
16179;SDS011;8196;49.428;10.906;2022-07-01T01:06:02;4.27;;;2.90;;
16179;SDS011;8196;49.428;10.906;2022-07-01T01:08:30;2.92;;;2.63;;
16179;SDS011;8196;49.428;10.906;2022-07-01T01:10:57;4.97;;;2.80;;
16179;SDS011;8196;49.428;10.906;2022-07-01T01:13:24;3.30;;;2.63;;
16179;SDS011;8196;49.428;10.906;2022-07-01T01:15:51;4.43;;;2.70;;
16179;SDS011;8196;49.428;10.906;2022-07-01T01:18:18;5.03;;;2.67;;
16179;SDS011;8196;49.428;10.906;2022-07-01T01:20:44;2.80;;;2.22;;
16179;SDS011;8196;49.428;10.906;2022-07-01T01:23:11;4.50;;;2.20;;
16179;SDS011;8196;49.428;10.906;2022-07-01T01:25:38;2.67;;;2.20;;
16179;SDS011;8196;49.428;10.906;2022-07-01T01:28:05;2.90;;;2.33;;
16179;SDS011;8196;49.428;10.906;2022-07-01T01:30:32;2.63;;;2.20;;
16179;SDS011;8196;49.428;10.906;2022-07-01T01:32:58;2.20;;;2.00;;
16179;SDS011;8196;49.428;10.906;2022-07-01T01:35:25;2.10;;;1.90;;
16179;SDS011;8196;49.428;10.906;2022-07-01T01:37:52;3.80;;;2.10;;
16179;SDS011;8196;49.428;10.906;2022-07-01T01:40:19;2.20;;;2.00;;
16179;SDS011;8196;49.428;10.906;2022-07-01T01:42:46;2.40;;;1.98;;
16179;SDS011;8196;49.428;10.906;2022-07-01T01:45:13;2.10;;;1.90;;
16179;SDS011;8196;49.428;10.906;2022-07-01T01:47:40;2.47;;;1.83;;
16179;SDS011;8196;49.428;10.906;2022-07-01T01:50:08;2.55;;;1.80;;
16179;SDS011;8196;49.428;10.906;2022-07-01T01:52:37;2.40;;;1.88;;
16179;SDS011;8196;49.428;10.906;2022-07-01T01:55:05;2.65;;;1.88;;
16179;SDS011;8196;49.428;10.906;2022-07-01T01:57:32;1.80;;;1.70;;
16179;SDS011;8196;49.428;10.906;2022-07-01T01:59:59;2.15;;;1.73;;
16179;SDS011;8196;49.428;10.906;2022-07-01T02:02:26;3.42;;;1.80;;
16179;SDS011;8196;49.428;10.906;2022-07-01T02:04:53;1.88;;;1.70;;
16179;SDS011;8196;49.428;10.906;2022-07-01T02:07:20;2.70;;;1.80;;
16179;SDS011;8196;49.428;10.906;2022-07-01T02:09:47;2.20;;;1.83;;
16179;SDS011;8196;49.428;10.906;2022-07-01T02:12:13;1.75;;;1.65;;
16179;SDS011;8196;49.428;10.906;2022-07-01T02:14:40;3.15;;;1.70;;
16179;SDS011;8196;49.428;10.906;2022-07-01T02:17:08;1.70;;;1.60;;
16179;SDS011;8196;49.428;10.906;2022-07-01T02:19:34;3.33;;;1.73;;
16179;SDS011;8196;49.428;10.906;2022-07-01T02:22:01;1.80;;;1.70;;
16179;SDS011;8196;49.428;10.906;2022-07-01T02:24:28;2.07;;;1.73;;
16179;SDS011;8196;49.428;10.906;2022-07-01T02:26:55;2.10;;;1.77;;
16179;SDS011;8196;49.428;10.906;2022-07-01T02:29:21;2.15;;;1.55;;
16179;SDS011;8196;49.428;10.906;2022-07-01T02:31:48;2.63;;;1.97;;
16179;SDS011;8196;49.428;10.906;2022-07-01T02:34:15;1.88;;;1.70;;
16179;SDS011;8196;49.428;10.906;2022-07-01T02:36:42;3.38;;;2.13;;
16179;SDS011;8196;49.428;10.906;2022-07-01T02:39:10;2.58;;;2.15;;
16179;SDS011;8196;49.428;10.906;2022-07-01T02:41:36;2.42;;;2.15;;
16179;SDS011;8196;49.428;10.906;2022-07-01T02:44:23;2.37;;;2.00;;
16179;SDS011;8196;49.428;10.906;2022-07-01T02:46:50;2.53;;;2.33;;
16179;SDS011;8196;49.428;10.906;2022-07-01T02:49:17;3.20;;;2.50;;
16179;SDS011;8196;49.428;10.906;2022-07-01T02:51:44;2.95;;;2.70;;
16179;SDS011;8196;49.428;10.906;2022-07-01T02:54:12;4.60;;;2.65;;
16179;SDS011;8196;49.428;10.906;2022-07-01T02:56:39;6.25;;;2.60;;
16179;SDS011;8196;49.428;10.906;2022-07-01T02:59:06;2.70;;;2.50;;
16179;SDS011;8196;49.428;10.906;2022-07-01T03:01:33;2.90;;;2.60;;
16179;SDS011;8196;49.428;10.906;2022-07-01T03:04:00;2.78;;;2.58;;
16179;SDS011;8196;49.428;10.906;2022-07-01T03:06:27;3.20;;;2.90;;
16179;SDS011;8196;49.428;10.906;2022-07-01T03:08:55;3.47;;;3.17;;
16179;SDS011;8196;49.428;10.906;2022-07-01T03:11:24;3.28;;;2.67;;
16179;SDS011;8196;49.428;10.906;2022-07-01T03:13:51;3.30;;;3.00;;
16179;SDS011;8196;49.428;10.906;2022-07-01T03:16:18;3.03;;;2.80;;
16179;SDS011;8196;49.428;10.906;2022-07-01T03:18:45;3.00;;;2.80;;
16179;SDS011;8196;49.428;10.906;2022-07-01T03:21:13;2.88;;;2.63;;
16179;SDS011;8196;49.428;10.906;2022-07-01T03:23:40;2.97;;;2.63;;
16179;SDS011;8196;49.428;10.906;2022-07-01T03:26:07;3.00;;;2.70;;
16179;SDS011;8196;49.428;10.906;2022-07-01T03:28:34;3.47;;;2.90;;
16179;SDS011;8196;49.428;10.906;2022-07-01T03:31:01;3.97;;;2.70;;
16179;SDS011;8196;49.428;10.906;2022-07-01T03:33:28;3.10;;;2.80;;
16179;SDS011;8196;49.428;10.906;2022-07-01T03:35:58;3.08;;;2.88;;
16179;SDS011;8196;49.428;10.906;2022-07-01T03:38:25;3.30;;;3.00;;
16179;SDS011;8196;49.428;10.906;2022-07-01T03:40:52;3.60;;;3.08;;
16179;SDS011;8196;49.428;10.906;2022-07-01T03:43:19;4.07;;;2.90;;
16179;SDS011;8196;49.428;10.906;2022-07-01T03:45:47;3.50;;;3.20;;
16179;SDS011;8196;49.428;10.906;2022-07-01T03:48:14;3.70;;;3.40;;
16179;SDS011;8196;49.428;10.906;2022-07-01T03:50:42;3.28;;;3.00;;
16179;SDS011;8196;49.428;10.906;2022-07-01T03:53:09;3.90;;;3.50;;
16179;SDS011;8196;49.428;10.906;2022-07-01T03:55:56;3.83;;;3.00;;
16179;SDS011;8196;49.428;10.906;2022-07-01T03:58:23;3.30;;;3.00;;
16179;SDS011;8196;49.428;10.906;2022-07-01T04:00:50;3.20;;;2.90;;
16179;SDS011;8196;49.428;10.906;2022-07-01T04:03:18;3.45;;;3.20;;
16179;SDS011;8196;49.428;10.906;2022-07-01T04:05:45;3.90;;;3.60;;
16179;SDS011;8196;49.428;10.906;2022-07-01T04:08:12;3.60;;;3.30;;
16179;SDS011;8196;49.428;10.906;2022-07-01T04:10:40;3.75;;;3.38;;
16179;SDS011;8196;49.428;10.906;2022-07-01T04:13:08;3.40;;;3.10;;
16179;SDS011;8196;49.428;10.906;2022-07-01T04:15:55;4.72;;;4.10;;
16179;SDS011;8196;49.428;10.906;2022-07-01T04:18:23;3.75;;;3.45;;
16179;SDS011;8196;49.428;10.906;2022-07-01T04:20:50;2.50;;;2.30;;
16179;SDS011;8196;49.428;10.906;2022-07-01T04:23:37;0.10;;;0.10;;
16179;SDS011;8196;49.428;10.906;2022-07-01T04:26:04;0.00;;;0.00;;
16179;SDS011;8196;49.428;10.906;2022-07-01T04:28:51;0.07;;;0.07;;
16179;SDS011;8196;49.428;10.906;2022-07-01T04:31:19;0.10;;;0.10;;
16179;SDS011;8196;49.428;10.906;2022-07-01T04:33:46;0.00;;;0.00;;
16179;SDS011;8196;49.428;10.906;2022-07-01T04:36:14;0.10;;;0.10;;
16179;SDS011;8196;49.428;10.906;2022-07-01T04:38:42;0.15;;;0.15;;
16179;SDS011;8196;49.428;10.906;2022-07-01T04:41:09;0.10;;;0.10;;
16179;SDS011;8196;49.428;10.906;2022-07-01T04:43:56;0.20;;;0.20;;
16179;SDS011;8196;49.428;10.906;2022-07-01T04:46:23;0.00;;;0.00;;
16179;SDS011;8196;49.428;10.906;2022-07-01T04:48:51;0.10;;;0.10;;
16179;SDS011;8196;49.428;10.906;2022-07-01T04:51:18;0.10;;;0.10;;
16179;SDS011;8196;49.428;10.906;2022-07-01T04:53:45;0.00;;;0.00;;
16179;SDS011;8196;49.428;10.906;2022-07-01T04:56:13;0.50;;;0.50;;
16179;SDS011;8196;49.428;10.906;2022-07-01T04:58:40;0.10;;;0.10;;
16179;SDS011;8196;49.428;10.906;2022-07-01T05:01:07;0.10;;;0.10;;
16179;SDS011;8196;49.428;10.906;2022-07-01T05:03:34;0.10;;;0.10;;
16179;SDS011;8196;49.428;10.906;2022-07-01T05:06:01;0.00;;;0.00;;
16179;SDS011;8196;49.428;10.906;2022-07-01T05:08:29;0.10;;;0.10;;
16179;SDS011;8196;49.428;10.906;2022-07-01T05:10:56;0.30;;;0.30;;
16179;SDS011;8196;49.428;10.906;2022-07-01T05:13:23;0.20;;;0.20;;
16179;SDS011;8196;49.428;10.906;2022-07-01T05:15:50;0.03;;;0.03;;
16179;SDS011;8196;49.428;10.906;2022-07-01T05:18:17;0.00;;;0.00;;
16179;SDS011;8196;49.428;10.906;2022-07-01T05:21:04;0.10;;;0.10;;
16179;SDS011;8196;49.428;10.906;2022-07-01T05:23:51;0.17;;;0.17;;
16179;SDS011;8196;49.428;10.906;2022-07-01T05:26:18;0.20;;;0.20;;
16179;SDS011;8196;49.428;10.906;2022-07-01T05:28:46;0.15;;;0.15;;
16179;SDS011;8196;49.428;10.906;2022-07-01T05:31:13;0.03;;;0.03;;
16179;SDS011;8196;49.428;10.906;2022-07-01T05:33:41;0.40;;;0.40;;
16179;SDS011;8196;49.428;10.906;2022-07-01T05:36:09;0.10;;;0.10;;
16179;SDS011;8196;49.428;10.906;2022-07-01T05:38:36;0.10;;;0.10;;
16179;SDS011;8196;49.428;10.906;2022-07-01T05:41:03;0.10;;;0.10;;
16179;SDS011;8196;49.428;10.906;2022-07-01T05:43:31;0.10;;;0.10;;
16179;SDS011;8196;49.428;10.906;2022-07-01T05:45:58;0.10;;;0.10;;
16179;SDS011;8196;49.428;10.906;2022-07-01T05:48:26;0.10;;;0.10;;
16179;SDS011;8196;49.428;10.906;2022-07-01T05:50:53;0.10;;;0.10;;
16179;SDS011;8196;49.428;10.906;2022-07-01T05:53:21;0.00;;;0.00;;
16179;SDS011;8196;49.428;10.906;2022-07-01T05:55:48;0.10;;;0.10;;
16179;SDS011;8196;49.428;10.906;2022-07-01T05:58:16;0.00;;;0.00;;
16179;SDS011;8196;49.428;10.906;2022-07-01T06:00:43;0.10;;;0.10;;
16179;SDS011;8196;49.428;10.906;2022-07-01T06:03:11;0.10;;;0.10;;
16179;SDS011;8196;49.428;10.906;2022-07-01T06:05:39;0.10;;;0.10;;
16179;SDS011;8196;49.428;10.906;2022-07-01T06:08:06;0.10;;;0.10;;
16179;SDS011;8196;49.428;10.906;2022-07-01T06:10:34;0.10;;;0.10;;
16179;SDS011;8196;49.428;10.906;2022-07-01T06:13:02;0.10;;;0.10;;
16179;SDS011;8196;49.428;10.906;2022-07-01T06:15:29;0.20;;;0.20;;
16179;SDS011;8196;49.428;10.906;2022-07-01T06:17:57;0.30;;;0.20;;
16179;SDS011;8196;49.428;10.906;2022-07-01T06:20:24;0.00;;;0.00;;
16179;SDS011;8196;49.428;10.906;2022-07-01T06:22:52;0.10;;;0.10;;
16179;SDS011;8196;49.428;10.906;2022-07-01T06:25:19;0.10;;;0.10;;
16179;SDS011;8196;49.428;10.906;2022-07-01T06:27:46;0.13;;;0.13;;
16179;SDS011;8196;49.428;10.906;2022-07-01T06:30:13;0.10;;;0.10;;
16179;SDS011;8196;49.428;10.906;2022-07-01T06:32:40;0.00;;;0.00;;
16179;SDS011;8196;49.428;10.906;2022-07-01T06:35:08;0.10;;;0.10;;
16179;SDS011;8196;49.428;10.906;2022-07-01T06:37:35;0.00;;;0.00;;
16179;SDS011;8196;49.428;10.906;2022-07-01T06:40:05;0.10;;;0.10;;
16179;SDS011;8196;49.428;10.906;2022-07-01T06:42:33;0.00;;;0.00;;
16179;SDS011;8196;49.428;10.906;2022-07-01T06:45:00;0.10;;;0.10;;
16179;SDS011;8196;49.428;10.906;2022-07-01T06:47:28;0.75;;;0.75;;
16179;SDS011;8196;49.428;10.906;2022-07-01T06:49:55;0.00;;;0.00;;
16179;SDS011;8196;49.428;10.906;2022-07-01T06:52:28;0.10;;;0.10;;
16179;SDS011;8196;49.428;10.906;2022-07-01T06:54:55;0.00;;;0.00;;
16179;SDS011;8196;49.428;10.906;2022-07-01T06:57:22;0.10;;;0.10;;
16179;SDS011;8196;49.428;10.906;2022-07-01T06:59:50;0.00;;;0.00;;
16179;SDS011;8196;49.428;10.906;2022-07-01T07:02:17;0.30;;;0.30;;
16179;SDS011;8196;49.428;10.906;2022-07-01T07:04:44;0.10;;;0.10;;
16179;SDS011;8196;49.428;10.906;2022-07-01T07:07:25;0.60;;;0.40;;
16179;SDS011;8196;49.428;10.906;2022-07-01T07:09:52;0.10;;;0.10;;
16179;SDS011;8196;49.428;10.906;2022-07-01T07:12:20;0.10;;;0.10;;
16179;SDS011;8196;49.428;10.906;2022-07-01T07:14:47;0.10;;;0.10;;
16179;SDS011;8196;49.428;10.906;2022-07-01T07:17:14;0.15;;;0.15;;
16179;SDS011;8196;49.428;10.906;2022-07-01T07:19:41;0.00;;;0.00;;
16179;SDS011;8196;49.428;10.906;2022-07-01T07:22:08;0.10;;;0.10;;
16179;SDS011;8196;49.428;10.906;2022-07-01T07:24:35;0.00;;;0.00;;
16179;SDS011;8196;49.428;10.906;2022-07-01T07:27:04;0.20;;;0.20;;
16179;SDS011;8196;49.428;10.906;2022-07-01T07:29:31;0.08;;;0.08;;
16179;SDS011;8196;49.428;10.906;2022-07-01T07:31:58;2.40;;;2.10;;
16179;SDS011;8196;49.428;10.906;2022-07-01T07:34:25;2.20;;;1.98;;
16179;SDS011;8196;49.428;10.906;2022-07-01T07:36:52;3.13;;;2.50;;
16179;SDS011;8196;49.428;10.906;2022-07-01T07:39:19;2.75;;;2.55;;
16179;SDS011;8196;49.428;10.906;2022-07-01T07:41:47;2.92;;;2.72;;
16179;SDS011;8196;49.428;10.906;2022-07-01T07:44:16;3.03;;;2.40;;
16179;SDS011;8196;49.428;10.906;2022-07-01T07:46:43;3.00;;;2.70;;
16179;SDS011;8196;49.428;10.906;2022-07-01T07:49:10;3.53;;;2.95;;
16179;SDS011;8196;49.428;10.906;2022-07-01T07:51:37;3.80;;;2.80;;
16179;SDS011;8196;49.428;10.906;2022-07-01T07:54:04;3.20;;;2.50;;
16179;SDS011;8196;49.428;10.906;2022-07-01T07:56:31;2.28;;;2.08;;
16179;SDS011;8196;49.428;10.906;2022-07-01T07:58:59;3.28;;;2.25;;
16179;SDS011;8196;49.428;10.906;2022-07-01T08:01:26;2.37;;;2.17;;
16179;SDS011;8196;49.428;10.906;2022-07-01T08:03:53;2.75;;;2.10;;
16179;SDS011;8196;49.428;10.906;2022-07-01T08:06:21;2.88;;;1.92;;
16179;SDS011;8196;49.428;10.906;2022-07-01T08:08:48;2.75;;;2.10;;
16179;SDS011;8196;49.428;10.906;2022-07-01T08:11:15;2.63;;;2.10;;
16179;SDS011;8196;49.428;10.906;2022-07-01T08:13:43;4.43;;;2.50;;
16179;SDS011;8196;49.428;10.906;2022-07-01T08:16:10;2.70;;;2.50;;
16179;SDS011;8196;49.428;10.906;2022-07-01T08:18:37;3.53;;;2.40;;
16179;SDS011;8196;49.428;10.906;2022-07-01T08:21:04;2.40;;;2.20;;
16179;SDS011;8196;49.428;10.906;2022-07-01T08:23:31;2.70;;;2.50;;
16179;SDS011;8196;49.428;10.906;2022-07-01T08:25:58;2.58;;;2.38;;
16179;SDS011;8196;49.428;10.906;2022-07-01T08:28:25;2.70;;;2.30;;
16179;SDS011;8196;49.428;10.906;2022-07-01T08:30:53;2.85;;;2.35;;
16179;SDS011;8196;49.428;10.906;2022-07-01T08:33:20;2.50;;;2.30;;
16179;SDS011;8196;49.428;10.906;2022-07-01T08:35:48;2.47;;;2.27;;
16179;SDS011;8196;49.428;10.906;2022-07-01T08:38:17;2.40;;;2.20;;
16179;SDS011;8196;49.428;10.906;2022-07-01T08:40:48;2.87;;;2.57;;
16179;SDS011;8196;49.428;10.906;2022-07-01T08:43:19;2.92;;;2.58;;
16179;SDS011;8196;49.428;10.906;2022-07-01T08:45:47;3.78;;;2.47;;
16179;SDS011;8196;49.428;10.906;2022-07-01T08:48:14;2.17;;;1.92;;
16179;SDS011;8196;49.428;10.906;2022-07-01T08:50:41;2.60;;;2.40;;
16179;SDS011;8196;49.428;10.906;2022-07-01T08:53:09;2.55;;;2.35;;
16179;SDS011;8196;49.428;10.906;2022-07-01T08:55:36;2.60;;;2.40;;
16179;SDS011;8196;49.428;10.906;2022-07-01T08:58:25;3.10;;;2.90;;
16179;SDS011;8196;49.428;10.906;2022-07-01T09:00:52;3.20;;;2.88;;
16179;SDS011;8196;49.428;10.906;2022-07-01T09:03:25;4.68;;;3.03;;
16179;SDS011;8196;49.428;10.906;2022-07-01T09:05:52;3.72;;;3.17;;
16179;SDS011;8196;49.428;10.906;2022-07-01T09:08:20;3.88;;;3.58;;
16179;SDS011;8196;49.428;10.906;2022-07-01T09:10:54;3.15;;;2.85;;
16179;SDS011;8196;49.428;10.906;2022-07-01T09:13:21;4.28;;;3.10;;
16179;SDS011;8196;49.428;10.906;2022-07-01T09:15:48;3.40;;;3.05;;
16179;SDS011;8196;49.428;10.906;2022-07-01T09:18:16;3.58;;;3.00;;
16179;SDS011;8196;49.428;10.906;2022-07-01T09:20:45;3.53;;;3.22;;
16179;SDS011;8196;49.428;10.906;2022-07-01T09:23:15;3.78;;;3.38;;
16179;SDS011;8196;49.428;10.906;2022-07-01T09:25:44;3.73;;;3.40;;
16179;SDS011;8196;49.428;10.906;2022-07-01T09:28:19;3.10;;;2.90;;
16179;SDS011;8196;49.428;10.906;2022-07-01T09:30:47;3.45;;;3.15;;
16179;SDS011;8196;49.428;10.906;2022-07-01T09:33:16;5.18;;;3.60;;
16179;SDS011;8196;49.428;10.906;2022-07-01T09:35:45;3.85;;;3.40;;
16179;SDS011;8196;49.428;10.906;2022-07-01T09:38:13;4.55;;;3.50;;
16179;SDS011;8196;49.428;10.906;2022-07-01T09:40:58;3.47;;;3.08;;
16179;SDS011;8196;49.428;10.906;2022-07-01T09:43:26;3.90;;;3.23;;
16179;SDS011;8196;49.428;10.906;2022-07-01T09:45:55;4.00;;;3.60;;
16179;SDS011;8196;49.428;10.906;2022-07-01T09:48:24;3.20;;;2.90;;
16179;SDS011;8196;49.428;10.906;2022-07-01T09:50:52;3.10;;;2.80;;
16179;SDS011;8196;49.428;10.906;2022-07-01T09:53:19;5.13;;;3.23;;
16179;SDS011;8196;49.428;10.906;2022-07-01T09:55:46;2.72;;;2.53;;
16179;SDS011;8196;49.428;10.906;2022-07-01T09:58:14;3.10;;;2.87;;
16179;SDS011;8196;49.428;10.906;2022-07-01T10:00:42;3.30;;;3.00;;
16179;SDS011;8196;49.428;10.906;2022-07-01T10:03:09;3.28;;;2.97;;
16179;SDS011;8196;49.428;10.906;2022-07-01T10:05:38;2.85;;;2.55;;
16179;SDS011;8196;49.428;10.906;2022-07-01T10:13:40;2.88;;;2.67;;
16179;SDS011;8196;49.428;10.906;2022-07-01T10:16:08;2.90;;;2.70;;
16179;SDS011;8196;49.428;10.906;2022-07-01T10:18:35;3.22;;;2.92;;
16179;SDS011;8196;49.428;10.906;2022-07-01T10:21:03;3.05;;;2.75;;
16179;SDS011;8196;49.428;10.906;2022-07-01T10:26:06;3.70;;;3.13;;
16179;SDS011;8196;49.428;10.906;2022-07-01T10:28:42;3.30;;;3.00;;
16179;SDS011;8196;49.428;10.906;2022-07-01T10:31:10;3.60;;;3.30;;
16179;SDS011;8196;49.428;10.906;2022-07-01T10:33:46;3.85;;;3.47;;
16179;SDS011;8196;49.428;10.906;2022-07-01T10:39:07;3.78;;;2.65;;
16179;SDS011;8196;49.428;10.906;2022-07-01T10:41:34;4.38;;;3.17;;
16179;SDS011;8196;49.428;10.906;2022-07-01T10:44:02;3.25;;;2.95;;
16179;SDS011;8196;49.428;10.906;2022-07-01T10:49:53;3.58;;;3.28;;
16179;SDS011;8196;49.428;10.906;2022-07-01T10:52:10;3.50;;;2.88;;
16179;SDS011;8196;49.428;10.906;2022-07-01T10:57:24;3.13;;;2.85;;
16179;SDS011;8196;49.428;10.906;2022-07-01T10:59:53;2.80;;;2.60;;
16179;SDS011;8196;49.428;10.906;2022-07-01T11:02:22;2.73;;;2.53;;
16179;SDS011;8196;49.428;10.906;2022-07-01T11:04:50;2.60;;;2.40;;
16179;SDS011;8196;49.428;10.906;2022-07-01T11:07:17;3.20;;;2.90;;
16179;SDS011;8196;49.428;10.906;2022-07-01T11:09:45;2.93;;;2.63;;
16179;SDS011;8196;49.428;10.906;2022-07-01T11:12:14;2.58;;;2.35;;
16179;SDS011;8196;49.428;10.906;2022-07-01T11:14:42;2.87;;;2.47;;
16179;SDS011;8196;49.428;10.906;2022-07-01T11:17:11;3.70;;;2.30;;
16179;SDS011;8196;49.428;10.906;2022-07-01T11:19:38;2.58;;;2.30;;
16179;SDS011;8196;49.428;10.906;2022-07-01T11:22:05;2.17;;;1.98;;
16179;SDS011;8196;49.428;10.906;2022-07-01T11:24:33;2.50;;;2.30;;
16179;SDS011;8196;49.428;10.906;2022-07-01T11:27:00;2.20;;;2.00;;
16179;SDS011;8196;49.428;10.906;2022-07-01T11:29:33;2.27;;;2.07;;
16179;SDS011;8196;49.428;10.906;2022-07-01T11:32:00;2.65;;;2.20;;
16179;SDS011;8196;49.428;10.906;2022-07-01T11:34:28;2.38;;;2.10;;
16179;SDS011;8196;49.428;10.906;2022-07-01T11:36:56;2.70;;;2.20;;
16179;SDS011;8196;49.428;10.906;2022-07-01T11:39:46;2.95;;;2.65;;
16179;SDS011;8196;49.428;10.906;2022-07-01T11:42:13;3.10;;;2.80;;
16179;SDS011;8196;49.428;10.906;2022-07-01T11:44:41;3.23;;;2.57;;
16179;SDS011;8196;49.428;10.906;2022-07-01T11:47:10;2.45;;;2.25;;
16179;SDS011;8196;49.428;10.906;2022-07-01T11:49:46;2.67;;;2.42;;
16179;SDS011;8196;49.428;10.906;2022-07-01T11:52:14;2.70;;;2.50;;
16179;SDS011;8196;49.428;10.906;2022-07-01T11:54:43;2.30;;;2.10;;
16179;SDS011;8196;49.428;10.906;2022-07-01T11:57:15;2.70;;;2.50;;
16179;SDS011;8196;49.428;10.906;2022-07-01T11:59:43;3.10;;;2.80;;
16179;SDS011;8196;49.428;10.906;2022-07-01T12:02:12;2.90;;;2.60;;
16179;SDS011;8196;49.428;10.906;2022-07-01T12:04:40;2.50;;;2.30;;
16179;SDS011;8196;49.428;10.906;2022-07-01T12:07:08;2.78;;;2.47;;
16179;SDS011;8196;49.428;10.906;2022-07-01T12:09:36;2.63;;;2.42;;
16179;SDS011;8196;49.428;10.906;2022-07-01T12:12:05;3.10;;;2.80;;
16179;SDS011;8196;49.428;10.906;2022-07-01T12:14:33;2.63;;;2.40;;
16179;SDS011;8196;49.428;10.906;2022-07-01T12:17:04;2.50;;;2.30;;
16179;SDS011;8196;49.428;10.906;2022-07-01T12:22:00;3.80;;;2.90;;
16179;SDS011;8196;49.428;10.906;2022-07-01T12:24:28;3.10;;;2.80;;
16179;SDS011;8196;49.428;10.906;2022-07-01T12:29:26;2.40;;;2.20;;
16179;SDS011;8196;49.428;10.906;2022-07-01T12:34:22;1.90;;;1.70;;
16179;SDS011;8196;49.428;10.906;2022-07-01T12:36:49;2.10;;;1.90;;
16179;SDS011;8196;49.428;10.906;2022-07-01T12:39:17;2.20;;;1.80;;
16179;SDS011;8196;49.428;10.906;2022-07-01T12:41:48;2.13;;;1.92;;
16179;SDS011;8196;49.428;10.906;2022-07-01T12:44:20;1.70;;;1.60;;
16179;SDS011;8196;49.428;10.906;2022-07-01T12:46:47;1.98;;;1.77;;
16179;SDS011;8196;49.428;10.906;2022-07-01T12:49:22;1.52;;;1.40;;
16179;SDS011;8196;49.428;10.906;2022-07-01T12:51:50;2.40;;;1.80;;
16179;SDS011;8196;49.428;10.906;2022-07-01T12:54:34;1.60;;;1.50;;
16179;SDS011;8196;49.428;10.906;2022-07-01T12:57:04;0.17;;;0.17;;
16179;SDS011;8196;49.428;10.906;2022-07-01T12:59:31;0.30;;;0.10;;
16179;SDS011;8196;49.428;10.906;2022-07-01T13:02:00;0.10;;;0.10;;
16179;SDS011;8196;49.428;10.906;2022-07-01T13:04:28;0.00;;;0.00;;
16179;SDS011;8196;49.428;10.906;2022-07-01T13:06:55;0.10;;;0.10;;
16179;SDS011;8196;49.428;10.906;2022-07-01T13:09:23;0.10;;;0.10;;
16179;SDS011;8196;49.428;10.906;2022-07-01T13:11:50;0.10;;;0.10;;
16179;SDS011;8196;49.428;10.906;2022-07-01T13:14:17;0.20;;;0.20;;
16179;SDS011;8196;49.428;10.906;2022-07-01T13:16:44;0.00;;;0.00;;
16179;SDS011;8196;49.428;10.906;2022-07-01T13:19:11;0.20;;;0.20;;
16179;SDS011;8196;49.428;10.906;2022-07-01T13:21:38;0.00;;;0.00;;
16179;SDS011;8196;49.428;10.906;2022-07-01T13:24:06;0.10;;;0.10;;
16179;SDS011;8196;49.428;10.906;2022-07-01T13:26:53;0.00;;;0.00;;
16179;SDS011;8196;49.428;10.906;2022-07-01T13:29:20;0.10;;;0.10;;
16179;SDS011;8196;49.428;10.906;2022-07-01T13:31:53;0.00;;;0.00;;
16179;SDS011;8196;49.428;10.906;2022-07-01T13:34:20;0.10;;;0.10;;
16179;SDS011;8196;49.428;10.906;2022-07-01T13:36:47;0.10;;;0.10;;
16179;SDS011;8196;49.428;10.906;2022-07-01T13:39:14;0.00;;;0.00;;
16179;SDS011;8196;49.428;10.906;2022-07-01T13:41:41;0.20;;;0.20;;
16179;SDS011;8196;49.428;10.906;2022-07-01T13:44:09;0.00;;;0.00;;
16179;SDS011;8196;49.428;10.906;2022-07-01T13:46:36;0.20;;;0.20;;
16179;SDS011;8196;49.428;10.906;2022-07-01T13:49:11;0.08;;;0.08;;
16179;SDS011;8196;49.428;10.906;2022-07-01T13:51:38;0.10;;;0.10;;
16179;SDS011;8196;49.428;10.906;2022-07-01T13:54:06;0.10;;;0.10;;
16179;SDS011;8196;49.428;10.906;2022-07-01T13:56:33;0.10;;;0.10;;
16179;SDS011;8196;49.428;10.906;2022-07-01T13:59:00;0.05;;;0.05;;
16179;SDS011;8196;49.428;10.906;2022-07-01T14:01:28;0.10;;;0.10;;
16179;SDS011;8196;49.428;10.906;2022-07-01T14:03:55;0.10;;;0.10;;
16179;SDS011;8196;49.428;10.906;2022-07-01T14:06:22;0.35;;;0.35;;
16179;SDS011;8196;49.428;10.906;2022-07-01T14:08:50;0.10;;;0.10;;
16179;SDS011;8196;49.428;10.906;2022-07-01T14:11:17;0.20;;;0.20;;
16179;SDS011;8196;49.428;10.906;2022-07-01T14:13:44;0.10;;;0.10;;
16179;SDS011;8196;49.428;10.906;2022-07-01T14:16:11;1.60;;;1.20;;
16179;SDS011;8196;49.428;10.906;2022-07-01T14:18:38;2.22;;;1.40;;
16179;SDS011;8196;49.428;10.906;2022-07-01T14:21:12;1.60;;;1.50;;
16179;SDS011;8196;49.428;10.906;2022-07-01T14:23:39;2.10;;;1.83;;
16179;SDS011;8196;49.428;10.906;2022-07-01T14:26:06;1.85;;;1.67;;
16179;SDS011;8196;49.428;10.906;2022-07-01T14:28:33;2.88;;;2.10;;
16179;SDS011;8196;49.428;10.906;2022-07-01T14:31:00;2.58;;;1.70;;
16179;SDS011;8196;49.428;10.906;2022-07-01T14:33:28;2.88;;;2.67;;
16179;SDS011;8196;49.428;10.906;2022-07-01T14:35:55;2.72;;;2.50;;
16179;SDS011;8196;49.428;10.906;2022-07-01T14:38:22;2.10;;;2.00;;
16179;SDS011;8196;49.428;10.906;2022-07-01T14:40:49;1.67;;;1.48;;
16179;SDS011;8196;49.428;10.906;2022-07-01T14:43:16;2.17;;;1.98;;
16179;SDS011;8196;49.428;10.906;2022-07-01T14:45:43;1.60;;;1.50;;
16179;SDS011;8196;49.428;10.906;2022-07-01T14:48:11;2.55;;;1.60;;
16179;SDS011;8196;49.428;10.906;2022-07-01T14:50:40;1.70;;;1.60;;
16179;SDS011;8196;49.428;10.906;2022-07-01T14:53:07;2.63;;;2.10;;
16179;SDS011;8196;49.428;10.906;2022-07-01T14:55:35;2.00;;;1.80;;
16179;SDS011;8196;49.428;10.906;2022-07-01T14:58:02;2.22;;;2.03;;
16179;SDS011;8196;49.428;10.906;2022-07-01T15:00:29;2.03;;;1.63;;
16179;SDS011;8196;49.428;10.906;2022-07-01T15:02:58;1.98;;;1.88;;
16179;SDS011;8196;49.428;10.906;2022-07-01T15:05:25;2.00;;;1.80;;
16179;SDS011;8196;49.428;10.906;2022-07-01T15:07:52;2.10;;;1.27;;
16179;SDS011;8196;49.428;10.906;2022-07-01T15:10:19;1.85;;;1.75;;
16179;SDS011;8196;49.428;10.906;2022-07-01T15:12:47;2.00;;;1.90;;
16179;SDS011;8196;49.428;10.906;2022-07-01T15:15:17;2.88;;;1.95;;
16179;SDS011;8196;49.428;10.906;2022-07-01T15:17:44;1.63;;;1.52;;
16179;SDS011;8196;49.428;10.906;2022-07-01T15:20:12;1.95;;;1.65;;